createdAt,value
2018-11-21T00:02:22.395Z,2.50
2018-11-21T00:04:49.648Z,2.40
2018-11-21T00:09:44.186Z,2.30
2018-11-21T00:12:11.488Z,2.20
2018-11-21T00:14:38.821Z,2.10
2018-11-21T00:17:06.033Z,2.10
2018-11-21T00:19:33.312Z,2.00
2018-11-21T00:22:00.564Z,1.90
2018-11-21T00:24:27.825Z,1.90
2018-11-21T00:26:55.128Z,1.80
2018-11-21T00:29:22.425Z,1.80
2018-11-21T00:31:49.729Z,1.80
2018-11-21T00:34:17.012Z,1.80
2018-11-21T00:36:44.254Z,1.80
2018-11-21T00:39:12.926Z,1.80
2018-11-21T00:41:40.675Z,1.80
2018-11-21T00:44:07.931Z,1.70
2018-11-21T00:46:35.235Z,1.70
2018-11-21T00:49:02.608Z,1.70
2018-11-21T00:51:29.889Z,1.60
2018-11-21T00:53:57.123Z,1.60
2018-11-21T00:56:24.400Z,1.60
2018-11-21T00:58:51.625Z,1.60
2018-11-21T01:01:18.930Z,1.50
2018-11-21T01:03:46.203Z,1.50
2018-11-21T01:08:40.693Z,1.40
2018-11-21T01:11:07.933Z,1.30
2018-11-21T01:13:35.142Z,1.30
2018-11-21T01:16:02.410Z,1.30
2018-11-21T01:18:29.617Z,1.20
2018-11-21T01:20:58.547Z,1.20
2018-11-21T01:23:25.857Z,1.20
2018-11-21T01:25:53.110Z,1.20
2018-11-21T01:28:20.335Z,1.10
2018-11-21T01:30:47.622Z,1.10
2018-11-21T01:35:42.138Z,1.10
2018-11-21T01:38:09.348Z,1.10
2018-11-21T01:40:36.593Z,1.10
2018-11-21T01:43:04.116Z,1.20
2018-11-21T01:47:58.669Z,1.20
2018-11-21T01:50:25.972Z,1.20
2018-11-21T01:52:53.188Z,1.20
2018-11-21T01:55:20.468Z,1.10
2018-11-21T01:57:47.744Z,1.10
2018-11-21T02:00:15.031Z,1.10
2018-11-21T02:02:43.502Z,1.10
2018-11-21T02:07:37.986Z,1.10
2018-11-21T02:12:32.904Z,1.00
2018-11-21T02:15:00.154Z,0.90
2018-11-21T02:17:27.382Z,0.90
2018-11-21T02:19:54.628Z,0.80
2018-11-21T02:22:21.958Z,0.80
2018-11-21T02:24:49.241Z,0.80
2018-11-21T02:27:16.467Z,0.80
2018-11-21T02:29:43.724Z,0.80
2018-11-21T02:32:10.964Z,0.80
2018-11-21T02:34:38.196Z,0.70
2018-11-21T02:37:05.451Z,0.70
2018-11-21T02:39:32.706Z,0.70
2018-11-21T02:42:00.463Z,0.70
2018-11-21T02:44:27.695Z,0.70
2018-11-21T02:46:54.900Z,0.70
2018-11-21T02:49:22.223Z,0.70
2018-11-21T02:51:49.485Z,0.70
2018-11-21T02:54:16.753Z,0.70
2018-11-21T02:57:13.765Z,0.70
2018-11-21T02:59:41.112Z,0.70
2018-11-21T03:04:35.668Z,0.60
2018-11-21T03:09:30.181Z,0.60
2018-11-21T03:14:24.759Z,0.50
2018-11-21T03:19:19.385Z,0.50
2018-11-21T03:26:41.527Z,0.50
2018-11-21T03:29:08.787Z,0.40
2018-11-21T03:31:36.088Z,0.40
2018-11-21T03:34:03.315Z,0.30
2018-11-21T03:36:30.532Z,0.30
2018-11-21T03:41:25.149Z,0.20
2018-11-21T03:43:52.398Z,0.10
2018-11-21T03:46:19.663Z,0.10
2018-11-21T03:48:48.405Z,0.10
2018-11-21T03:51:15.562Z,0.10
2018-11-21T03:53:42.851Z,0.10
2018-11-21T03:56:10.122Z,0.10
2018-11-21T03:58:37.374Z,0.20
2018-11-21T04:01:04.867Z,0.20
2018-11-21T04:03:32.132Z,0.20
2018-11-21T04:05:59.396Z,0.20
2018-11-21T04:08:26.671Z,0.20
2018-11-21T04:10:53.900Z,0.30
2018-11-21T04:15:49.565Z,0.40
2018-11-21T04:20:44.093Z,0.40
2018-11-21T04:25:38.579Z,0.40
2018-11-21T04:30:33.266Z,0.50
2018-11-21T04:35:27.755Z,0.50
2018-11-21T04:40:22.327Z,0.50
2018-11-21T04:45:16.870Z,0.50
2018-11-21T04:50:11.408Z,0.30
2018-11-21T04:55:06.906Z,0.10
2018-11-21T04:57:34.200Z,0.10
2018-11-21T05:00:01.575Z,0.10
2018-11-21T05:02:28.900Z,0.10
2018-11-21T05:04:56.165Z,0.00
2018-11-21T05:07:23.407Z,0.10
2018-11-21T05:09:50.707Z,0.10
2018-11-21T05:12:17.917Z,0.00
2018-11-21T05:14:45.200Z,0.00
2018-11-21T05:17:12.456Z,0.00
2018-11-21T05:19:39.883Z,0.00
2018-11-21T05:22:07.110Z,0.00
2018-11-21T05:24:34.437Z,0.00
2018-11-21T05:27:01.770Z,0.00
2018-11-21T05:29:29.097Z,0.00
2018-11-21T05:31:56.362Z,0.00
2018-11-21T05:34:23.644Z,0.00
2018-11-21T05:36:50.862Z,0.00
2018-11-21T05:39:18.111Z,-0.10
2018-11-21T05:41:45.354Z,-0.10
2018-11-21T05:44:12.577Z,-0.10
2018-11-21T05:46:39.928Z,-0.10
2018-11-21T05:49:07.286Z,-0.20
2018-11-21T05:51:34.607Z,-0.20
2018-11-21T05:54:02.445Z,-0.20
2018-11-21T05:56:29.810Z,-0.20
2018-11-21T05:58:57.091Z,-0.20
2018-11-21T06:01:24.344Z,-0.20
2018-11-21T06:03:51.620Z,-0.20
2018-11-21T06:06:18.888Z,-0.10
2018-11-21T06:08:46.132Z,0.00
2018-11-21T06:13:41.064Z,0.00
2018-11-21T06:16:08.426Z,0.00
2018-11-21T06:18:35.655Z,0.00
2018-11-21T06:21:02.956Z,0.00
2018-11-21T06:23:30.287Z,0.00
2018-11-21T06:25:57.542Z,0.00
2018-11-21T06:28:24.800Z,0.00
2018-11-21T06:33:19.342Z,0.00
2018-11-21T06:38:15.042Z,-0.10
2018-11-21T06:40:42.337Z,-0.20
2018-11-21T06:43:09.559Z,-0.20
2018-11-21T06:45:36.947Z,-0.10
2018-11-21T06:48:04.317Z,-0.10
2018-11-21T06:50:31.581Z,-0.10
2018-11-21T06:52:58.898Z,-0.10
2018-11-21T06:55:26.233Z,0.00
2018-11-21T06:57:53.479Z,0.00
2018-11-21T07:02:47.991Z,0.00
2018-11-21T07:05:15.280Z,0.10
2018-11-21T07:10:11.993Z,0.20
2018-11-21T07:12:39.209Z,0.20
2018-11-21T07:15:06.758Z,0.00
2018-11-21T07:17:34.116Z,0.20
2018-11-21T07:20:01.523Z,0.20
2018-11-21T07:22:28.728Z,0.20
2018-11-21T07:24:56.123Z,0.20
2018-11-21T07:27:23.369Z,0.20
2018-11-21T07:29:50.666Z,0.20
2018-11-21T07:32:19.862Z,0.20
2018-11-21T07:34:47.127Z,0.30
2018-11-21T07:37:14.419Z,0.40
2018-11-21T07:39:42.944Z,0.40
2018-11-21T07:42:10.189Z,0.40
2018-11-21T07:44:37.447Z,0.40
2018-11-21T07:47:04.781Z,0.40
2018-11-21T07:51:59.349Z,0.50
2018-11-21T07:54:26.628Z,0.50
2018-11-21T07:57:32.539Z,0.60
2018-11-21T08:01:09.157Z,0.80
2018-11-21T08:03:41.003Z,0.90
2018-11-21T08:06:19.574Z,1.00
2018-11-21T08:09:05.105Z,1.20
2018-11-21T08:11:51.973Z,1.30
2018-11-21T08:14:37.366Z,1.40
2018-11-21T08:17:24.475Z,1.40
2018-11-21T08:20:10.026Z,1.50
2018-11-21T08:22:55.296Z,1.70
2018-11-21T08:28:20.791Z,2.40
2018-11-21T08:30:49.105Z,2.60
2018-11-21T08:33:16.424Z,3.00
2018-11-21T08:35:43.793Z,3.70
2018-11-21T08:38:11.135Z,4.30
2018-11-21T08:40:38.455Z,5.00
2018-11-21T08:43:06.253Z,5.50
2018-11-21T08:45:33.628Z,6.00
2018-11-21T08:48:00.932Z,6.30
2018-11-21T08:50:28.313Z,6.60
2018-11-21T08:52:55.574Z,6.70
2018-11-21T08:55:22.890Z,7.00
2018-11-21T08:57:50.152Z,7.30
2018-11-21T09:00:17.400Z,7.10
2018-11-21T09:02:44.607Z,7.10
2018-11-21T09:05:12.206Z,7.20
2018-11-21T09:07:40.449Z,7.40
2018-11-21T09:10:09.863Z,7.80
2018-11-21T09:12:37.149Z,8.00
2018-11-21T09:15:06.891Z,8.50
2018-11-21T09:17:34.178Z,8.50
2018-11-21T09:20:01.468Z,8.60
2018-11-21T09:22:28.773Z,8.90
2018-11-21T09:24:57.146Z,9.20
2018-11-21T09:27:24.341Z,9.00
2018-11-21T09:29:51.642Z,9.40
2018-11-21T09:32:21.433Z,9.90
2018-11-21T09:34:48.700Z,10.30
2018-11-21T09:37:15.967Z,10.10
2018-11-21T09:39:43.227Z,10.10
2018-11-21T09:42:10.554Z,9.90
2018-11-21T09:44:37.787Z,10.20
2018-11-21T09:47:05.104Z,10.30
2018-11-21T09:49:32.334Z,10.40
2018-11-21T09:51:59.642Z,10.50
2018-11-21T09:54:26.910Z,10.80
2018-11-21T09:59:21.476Z,11.20
2018-11-21T10:02:25.924Z,11.20
2018-11-21T10:04:53.198Z,11.00
2018-11-21T10:07:20.523Z,11.20
2018-11-21T10:09:49.314Z,11.70
2018-11-21T10:12:16.544Z,11.70
2018-11-21T10:14:43.859Z,11.70
2018-11-21T10:17:11.154Z,11.80
2018-11-21T10:19:38.513Z,11.90
2018-11-21T10:22:05.861Z,11.80
2018-11-21T10:24:33.176Z,11.80
2018-11-21T10:27:00.519Z,11.80
2018-11-21T10:31:55.075Z,12.50
2018-11-21T10:34:22.380Z,12.50
2018-11-21T10:36:49.660Z,12.50
2018-11-21T10:39:17.089Z,12.70
2018-11-21T10:41:44.364Z,12.60
2018-11-21T10:44:11.633Z,12.50
2018-11-21T10:46:38.912Z,11.20
2018-11-21T10:49:07.627Z,11.00
2018-11-21T10:51:34.823Z,10.70
2018-11-21T10:54:02.095Z,10.10
2018-11-21T10:56:29.402Z,9.80
2018-11-21T10:58:56.628Z,9.20
2018-11-21T11:01:43.505Z,8.70
2018-11-21T11:04:49.804Z,8.10
2018-11-21T11:07:39.615Z,7.80
2018-11-21T11:10:35.740Z,7.60
2018-11-21T11:13:21.077Z,7.70
2018-11-21T11:16:10.541Z,7.90
2018-11-21T11:18:56.122Z,8.10
2018-11-21T11:21:41.434Z,8.20
2018-11-21T11:24:43.467Z,8.20
2018-11-21T11:27:39.783Z,8.30
2018-11-21T11:30:26.718Z,8.30
2018-11-21T11:33:12.245Z,8.20
2018-11-21T11:35:57.659Z,8.10
2018-11-21T11:38:43.138Z,8.10
2018-11-21T11:41:32.923Z,7.90
2018-11-21T11:44:18.262Z,7.70
2018-11-21T11:47:03.864Z,7.60
2018-11-21T11:50:05.942Z,7.50
2018-11-21T11:52:56.048Z,7.30
2018-11-21T11:55:42.972Z,7.10
2018-11-21T11:58:32.464Z,6.90
2018-11-21T12:01:19.270Z,6.70
2018-11-21T12:07:00.919Z,6.70
2018-11-21T12:09:53.870Z,6.80
2018-11-21T12:12:41.262Z,7.10
2018-11-21T12:15:36.925Z,7.30
2018-11-21T12:18:22.959Z,7.70
2018-11-21T12:23:55.164Z,8.10
2018-11-21T12:26:51.366Z,8.40
2018-11-21T12:29:42.067Z,8.70
2018-11-21T12:35:17.115Z,8.50
2018-11-21T12:38:15.876Z,8.30
2018-11-21T12:41:01.353Z,8.40
2018-11-21T12:43:48.173Z,8.60
2018-11-21T12:46:37.879Z,8.50
2018-11-21T12:49:24.728Z,8.80
2018-11-21T12:52:29.774Z,8.90
2018-11-21T12:55:19.445Z,8.90
2018-11-21T12:58:21.283Z,9.20
2018-11-21T13:01:08.258Z,9.10
2018-11-21T13:03:55.284Z,9.20
2018-11-21T13:06:36.904Z,9.50
2018-11-21T13:09:27.748Z,9.60
2018-11-21T13:12:13.326Z,9.60
2018-11-21T13:15:09.191Z,9.50
2018-11-21T13:17:54.651Z,9.50
2018-11-21T13:20:53.536Z,9.30
2018-11-21T13:23:46.357Z,8.90
2018-11-21T13:26:33.245Z,8.40
2018-11-21T13:29:17.278Z,8.30
2018-11-21T13:31:59.154Z,8.00
2018-11-21T13:37:44.721Z,7.60
2018-11-21T13:40:29.111Z,7.40
2018-11-21T13:46:21.047Z,7.30
2018-11-21T13:52:02.890Z,6.90
2018-11-21T13:54:48.166Z,6.80
2018-11-21T13:59:44.993Z,6.60
2018-11-21T14:02:12.235Z,6.50
2018-11-21T14:04:39.815Z,6.50
2018-11-21T14:07:07.604Z,6.40
2018-11-21T14:12:02.072Z,6.40
2018-11-21T14:14:29.425Z,6.40
2018-11-21T14:16:56.766Z,6.40
2018-11-21T14:21:56.018Z,6.40
2018-11-21T14:24:20.151Z,6.30
2018-11-21T14:26:47.410Z,6.30
2018-11-21T14:29:14.724Z,6.10
2018-11-21T14:31:41.993Z,6.20
2018-11-21T14:34:09.359Z,6.00
2018-11-21T14:36:36.777Z,5.90
2018-11-21T14:39:09.842Z,5.90
2018-11-21T14:41:37.431Z,5.80
2018-11-21T14:44:05.466Z,5.80
2018-11-21T14:46:32.720Z,5.70
2018-11-21T14:49:00.020Z,5.60
2018-11-21T14:51:27.608Z,5.50
2018-11-21T14:53:54.886Z,5.50
2018-11-21T14:58:49.431Z,5.30
2018-11-21T15:03:44.216Z,5.20
2018-11-21T15:06:11.907Z,5.10
2018-11-21T15:11:06.478Z,5.00
2018-11-21T15:13:33.821Z,4.90
2018-11-21T15:16:01.165Z,4.80
2018-11-21T15:18:28.468Z,4.70
2018-11-21T15:20:56.263Z,4.70
2018-11-21T15:23:23.640Z,4.60
2018-11-21T15:25:51.007Z,4.60
2018-11-21T15:28:18.385Z,4.50
2018-11-21T15:33:13.213Z,4.50
2018-11-21T15:38:08.050Z,4.40
2018-11-21T15:43:04.149Z,4.30
2018-11-21T15:45:33.092Z,4.20
2018-11-21T15:52:57.176Z,4.10
2018-11-21T15:55:24.663Z,4.10
2018-11-21T15:57:51.981Z,4.10
2018-11-21T16:02:49.577Z,4.10
2018-11-21T16:05:17.395Z,4.00
2018-11-21T16:10:18.542Z,4.10
2018-11-21T16:15:17.490Z,4.00
2018-11-21T16:17:44.730Z,3.90
2018-11-21T16:20:13.418Z,3.80
2018-11-21T16:22:40.748Z,3.70
2018-11-21T16:25:11.901Z,3.70
2018-11-21T16:30:11.887Z,3.60
2018-11-21T16:32:39.375Z,3.50
2018-11-21T16:35:08.332Z,3.60
2018-11-21T16:37:34.348Z,3.60
2018-11-21T16:40:02.288Z,3.50
2018-11-21T16:42:29.599Z,3.40
2018-11-21T16:44:57.020Z,3.40
2018-11-21T16:47:25.236Z,3.40
2018-11-21T16:52:20.989Z,3.30
2018-11-21T16:54:52.749Z,3.40
2018-11-21T16:57:20.475Z,3.30
2018-11-21T16:59:47.938Z,3.20
2018-11-21T17:04:42.952Z,3.10
2018-11-21T17:07:10.297Z,3.00
2018-11-21T17:12:10.858Z,2.90
2018-11-21T17:14:38.233Z,2.80
2018-11-21T17:17:05.630Z,2.70
2018-11-21T17:26:56.303Z,2.50
2018-11-21T17:31:51.663Z,2.30
2018-11-21T17:34:19.576Z,2.20
2018-11-21T17:36:47.299Z,2.10
2018-11-21T17:39:15.227Z,2.00
2018-11-21T17:44:10.123Z,2.00
2018-11-21T17:49:05.117Z,1.90
2018-11-21T17:51:32.440Z,1.80
2018-11-21T17:53:59.725Z,1.80
2018-11-21T17:56:27.060Z,1.70
2018-11-21T17:58:54.566Z,1.60
2018-11-21T18:01:22.385Z,1.60
2018-11-21T18:03:49.680Z,1.50
2018-11-21T18:06:17.013Z,1.50
2018-11-21T18:08:45.087Z,1.40
2018-11-21T18:11:12.391Z,1.30
2018-11-21T18:13:39.615Z,1.30
2018-11-21T18:16:06.988Z,1.80
2018-11-21T18:21:01.523Z,1.10
2018-11-21T18:23:28.841Z,1.10
2018-11-21T18:25:56.084Z,1.00
2018-11-21T18:28:23.350Z,1.00
2018-11-21T18:30:50.639Z,0.90
2018-11-21T18:33:19.401Z,1.00
2018-11-21T18:35:46.619Z,0.90
2018-11-21T18:38:13.940Z,0.90
2018-11-21T18:40:41.334Z,0.80
2018-11-21T18:43:08.658Z,0.80
2018-11-21T18:45:37.659Z,0.80
2018-11-21T18:48:05.453Z,0.80
2018-11-21T18:50:32.676Z,0.80
2018-11-21T18:55:39.972Z,1.00
2018-11-21T18:58:27.424Z,1.10
2018-11-21T19:00:55.161Z,1.20
2018-11-21T19:03:23.005Z,1.30
2018-11-21T19:05:50.340Z,1.50
2018-11-21T19:08:17.744Z,1.60
2018-11-21T19:10:45.082Z,1.70
2018-11-21T19:13:12.292Z,1.80
2018-11-21T19:15:41.404Z,1.80
2018-11-21T19:18:08.830Z,1.90
2018-11-21T19:20:36.298Z,2.00
2018-11-21T19:25:31.197Z,2.10
2018-11-21T19:27:58.536Z,2.20
2018-11-21T19:30:25.791Z,2.30
2018-11-21T19:32:53.445Z,2.40
2018-11-21T19:35:20.823Z,2.40
2018-11-21T19:37:48.174Z,2.50
2018-11-21T19:40:16.267Z,2.50
2018-11-21T19:45:12.904Z,2.60
2018-11-21T19:47:40.440Z,2.60
2018-11-21T19:50:09.600Z,2.70
2018-11-21T19:52:37.495Z,2.70
2018-11-21T19:55:06.544Z,2.80
2018-11-21T20:00:01.128Z,2.80
2018-11-21T20:04:55.750Z,2.80
2018-11-21T20:09:50.462Z,2.90
2018-11-21T20:12:17.801Z,2.90
2018-11-21T20:14:45.055Z,3.00
2018-11-21T20:17:12.303Z,2.90
2018-11-21T20:19:40.975Z,3.00
2018-11-21T20:22:08.201Z,3.00
2018-11-21T20:24:35.533Z,3.00
2018-11-21T20:27:03.789Z,3.00
2018-11-21T20:31:58.605Z,3.10
2018-11-21T20:36:53.271Z,3.10
2018-11-21T20:47:10.650Z,3.20
2018-11-21T20:49:38.726Z,3.20
2018-11-21T20:52:05.971Z,3.20
2018-11-21T20:54:33.322Z,3.20
2018-11-21T20:57:00.545Z,3.20
2018-11-21T20:59:28.831Z,3.20
2018-11-21T21:01:57.233Z,3.20
2018-11-21T21:06:51.825Z,3.20
2018-11-21T21:11:46.356Z,3.20
2018-11-21T21:16:40.950Z,3.20
2018-11-21T21:21:35.631Z,3.30
2018-11-21T21:31:24.957Z,3.30
2018-11-21T21:36:19.582Z,3.30
2018-11-21T21:41:14.216Z,3.30
2018-11-21T21:51:04.096Z,3.40
2018-11-21T21:55:58.806Z,3.40
2018-11-21T22:00:53.393Z,3.40
2018-11-21T22:05:47.923Z,3.40
2018-11-21T22:10:42.628Z,3.50
2018-11-21T22:13:09.935Z,3.40
2018-11-21T22:15:38.126Z,3.50
2018-11-21T22:20:37.163Z,3.50
2018-11-21T22:23:04.732Z,3.50
2018-11-21T22:25:32.083Z,3.50
2018-11-21T22:28:00.347Z,3.50
2018-11-21T22:32:55.944Z,3.50
2018-11-21T22:35:25.248Z,3.50
2018-11-21T22:37:52.255Z,3.50
2018-11-21T22:40:20.277Z,3.50
2018-11-21T22:42:47.509Z,3.50
2018-11-21T22:45:16.163Z,3.50
2018-11-21T22:47:43.614Z,3.50
2018-11-21T22:52:39.807Z,3.60
2018-11-21T22:55:07.639Z,3.50
2018-11-21T23:00:02.301Z,3.50
2018-11-21T23:02:29.559Z,3.50
2018-11-21T23:04:57.143Z,3.60
2018-11-21T23:09:51.751Z,3.60
2018-11-21T23:12:18.995Z,3.60
2018-11-21T23:17:13.612Z,3.60
2018-11-21T23:19:40.900Z,3.60
2018-11-21T23:22:08.134Z,3.60
2018-11-21T23:24:35.394Z,3.60
2018-11-21T23:27:02.707Z,3.70
2018-11-21T23:29:30.021Z,3.70
2018-11-21T23:31:57.309Z,3.70
2018-11-21T23:34:24.743Z,3.70
2018-11-21T23:39:19.361Z,3.70
2018-11-21T23:44:14.088Z,3.70
2018-11-21T23:49:08.625Z,3.70
2018-11-21T23:54:03.419Z,3.70
2018-11-21T23:58:58.120Z,3.70
